Time;durP1;ratioP1;P1;durP2;ratioP2;P2;SDS_P1;SDS_P2;PMS_P1;PMS_P2;Temp;Humidity;BMP_temperature;BMP_pressure;BME280_temperature;BME280_humidity;BME280_pressure;Samples;Min_cycle;Max_cycle;Signal;HPM_P1;HPM_P2
2023/03/03 00:00:43;;;;;;;5.95;3.60;;;;;;;;;;5061810;28;20037;-82
2023/03/03 00:03:10;;;;;;;4.70;3.20;;;;;;;;;;5073253;28;20119;-79
2023/03/03 00:05:36;;;;;;;5.13;3.58;;;;;;;;;;5077530;28;20093;-81
2023/03/03 00:08:03;;;;;;;6.68;3.90;;;;;;;;;;5057042;28;20033;-83
2023/03/03 00:10:29;;;;;;;7.78;4.75;;;;;;;;;;5049428;28;20079;-82
2023/03/03 00:12:55;;;;;;;4.95;3.45;;;;;;;;;;5079920;28;20048;-82
2023/03/03 00:15:21;;;;;;;3.97;3.58;;;;;;;;;;5080698;28;20573;-82
2023/03/03 00:17:47;;;;;;;5.32;3.25;;;;;;;;;;5080470;28;20045;-80
2023/03/03 00:20:32;;;;;;;2.97;2.63;;;;;;;;;;5082198;28;20150;-82
2023/03/03 00:23:17;;;;;;;3.05;2.38;;;;;;;;;;5085273;28;20039;-81
2023/03/03 00:25:44;;;;;;;3.67;3.35;;;;;;;;;;5084737;28;20064;-84
2023/03/03 00:28:16;;;;;;;3.00;2.72;;;;;;;;;;5063508;28;20055;-84
2023/03/03 00:30:43;;;;;;;6.68;3.08;;;;;;;;;;5061858;28;20718;-82
2023/03/03 00:33:17;;;;;;;7.38;3.75;;;;;;;;;;5059921;28;20048;-80
2023/03/03 00:35:43;;;;;;;5.30;4.22;;;;;;;;;;5053756;28;20032;-83
2023/03/03 00:38:10;;;;;;;10.10;4.15;;;;;;;;;;5062232;28;20116;-80
2023/03/03 00:40:36;;;;;;;8.18;5.35;;;;;;;;;;5077293;28;20106;-81
2023/03/03 00:43:11;;;;;;;9.80;4.75;;;;;;;;;;5077882;28;20157;-82
2023/03/03 00:45:38;;;;;;;9.32;5.18;;;;;;;;;;5062311;28;20024;-82
2023/03/03 00:48:10;;;;;;;8.45;4.93;;;;;;;;;;5066529;28;20032;-82
2023/03/03 00:50:36;;;;;;;5.50;3.50;;;;;;;;;;5066033;28;20032;-83
2023/03/03 00:53:03;;;;;;;4.18;3.13;;;;;;;;;;5066657;28;20046;-82
2023/03/03 00:55:29;;;;;;;7.07;3.05;;;;;;;;;;5079354;28;20039;-79
2023/03/03 00:57:55;;;;;;;12.63;2.95;;;;;;;;;;5063667;28;20024;-81
2023/03/03 01:00:26;;;;;;;;;;;;;;;;;;5061724;28;20033;-81
2023/03/03 01:02:53;;;;;;;8.65;3.25;;;;;;;;;;5077810;28;20368;-83
2023/03/03 01:05:19;;;;;;;3.67;3.05;;;;;;;;;;5080063;28;20373;-82
2023/03/03 01:07:45;;;;;;;3.80;2.92;;;;;;;;;;5085549;28;20043;-80
2023/03/03 01:10:11;;;;;;;5.63;3.20;;;;;;;;;;5090978;28;20055;-80
2023/03/03 01:12:38;;;;;;;7.43;4.78;;;;;;;;;;5062589;28;20478;-82
2023/03/03 01:15:07;;;;;;;5.55;3.90;;;;;;;;;;5064284;28;20029;-78
2023/03/03 01:17:35;;;;;;;4.07;3.08;;;;;;;;;;5057954;28;20096;-81
2023/03/03 01:20:01;;;;;;;5.13;3.75;;;;;;;;;;5079283;28;20028;-82
2023/03/03 01:22:27;;;;;;;8.57;3.53;;;;;;;;;;5072713;28;20079;-80
2023/03/03 01:24:53;;;;;;;2.22;2.13;;;;;;;;;;5074755;28;20100;-82
2023/03/03 01:27:19;;;;;;;2.65;2.33;;;;;;;;;;5073859;28;20523;-81
2023/03/03 01:29:46;;;;;;;4.22;3.40;;;;;;;;;;5056626;28;20127;-81
2023/03/03 01:32:11;;;;;;;2.28;2.13;;;;;;;;;;5045856;28;20575;-80
2023/03/03 01:34:37;;;;;;;6.00;2.92;;;;;;;;;;5061795;28;20068;-82
2023/03/03 01:37:03;;;;;;;3.13;1.50;;;;;;;;;;5056984;28;20514;-81
2023/03/03 01:39:29;;;;;;;2.83;2.10;;;;;;;;;;5076809;28;20040;-81
2023/03/03 01:41:55;;;;;;;2.05;1.95;;;;;;;;;;5043412;28;20527;-83
2023/03/03 01:44:21;;;;;;;2.60;2.40;;;;;;;;;;5072893;28;20103;-80
2023/03/03 01:46:53;;;;;;;4.57;2.22;;;;;;;;;;5071217;28;20082;-78
2023/03/03 01:49:25;;;;;;;3.28;2.40;;;;;;;;;;5069500;28;20038;-81
2023/03/03 01:52:00;;;;;;;2.90;1.75;;;;;;;;;;5051906;28;20032;-81
2023/03/03 01:54:32;;;;;;;2.45;2.22;;;;;;;;;;5052271;28;20032;-80
2023/03/03 01:57:00;;;;;;;2.45;2.03;;;;;;;;;;5044554;28;20036;-80
2023/03/03 01:59:28;;;;;;;3.58;2.83;;;;;;;;;;5039608;28;20028;-80
2023/03/03 02:01:54;;;;;;;5.85;3.40;;;;;;;;;;5051908;28;20412;-81
2023/03/03 02:04:20;;;;;;;4.82;2.42;;;;;;;;;;5068934;28;20099;-81
2023/03/03 02:06:49;;;;;;;2.30;2.20;;;;;;;;;;5070772;28;20036;-80
2023/03/03 02:09:15;;;;;;;3.03;1.92;;;;;;;;;;5073371;28;20032;-80
2023/03/03 02:11:43;;;;;;;1.77;1.70;;;;;;;;;;5073261;28;20085;-80
2023/03/03 02:14:10;;;;;;;3.30;2.55;;;;;;;;;;5073241;28;20457;-77
2023/03/03 02:16:39;;;;;;;1.75;1.65;;;;;;;;;;5072962;28;20028;-79
2023/03/03 02:19:05;;;;;;;1.70;1.60;;;;;;;;;;5073391;28;20412;-78
2023/03/03 02:21:31;;;;;;;3.17;2.25;;;;;;;;;;5072810;28;20074;-78
2023/03/03 02:24:08;;;;;;;4.28;2.38;;;;;;;;;;5072748;28;20149;-80
2023/03/03 02:26:35;;;;;;;3.78;1.92;;;;;;;;;;5054494;28;20037;-79
2023/03/03 02:29:05;;;;;;;1.10;1.10;;;;;;;;;;5038118;28;20032;-78
2023/03/03 02:31:31;;;;;;;2.45;2.10;;;;;;;;;;5054509;28;20453;-80
2023/03/03 02:33:58;;;;;;;3.22;2.42;;;;;;;;;;5038604;28;20036;-77
2023/03/03 02:36:25;;;;;;;4.85;2.45;;;;;;;;;;5072990;28;20044;-78
2023/03/03 02:38:58;;;;;;;1.80;1.67;;;;;;;;;;5072852;28;20446;-79
2023/03/03 02:41:41;;;;;;;3.53;1.95;;;;;;;;;;5059566;28;20114;-78
2023/03/03 02:44:08;;;;;;;2.30;2.10;;;;;;;;;;5072926;28;20198;-77
2023/03/03 02:46:35;;;;;;;6.63;2.58;;;;;;;;;;5073476;28;20044;-80
2023/03/03 02:49:02;;;;;;;3.47;1.83;;;;;;;;;;5074286;28;20081;-79
2023/03/03 02:51:28;;;;;;;3.67;2.60;;;;;;;;;;5056482;28;20040;-76
2023/03/03 02:53:54;;;;;;;1.92;1.75;;;;;;;;;;5073578;28;20377;-79
2023/03/03 02:56:20;;;;;;;2.42;1.90;;;;;;;;;;5057662;28;20063;-81
2023/03/03 02:58:46;;;;;;;3.45;1.67;;;;;;;;;;5075695;28;20021;-81
2023/03/03 03:01:12;;;;;;;4.32;1.98;;;;;;;;;;5055484;28;20039;-80
2023/03/03 03:03:42;;;;;;;3.58;2.45;;;;;;;;;;5070533;28;20115;-79
2023/03/03 03:06:08;;;;;;;3.47;2.88;;;;;;;;;;5052632;28;20443;-77
2023/03/03 03:08:34;;;;;;;4.45;2.20;;;;;;;;;;5052132;28;20025;-78
2023/03/03 03:11:00;;;;;;;1.77;1.65;;;;;;;;;;5069919;28;20042;-78
2023/03/03 03:13:29;;;;;;;4.22;1.85;;;;;;;;;;5052116;28;20029;-79
2023/03/03 03:15:56;;;;;;;2.67;2.47;;;;;;;;;;5035953;28;20435;-79
2023/03/03 03:18:22;;;;;;;6.13;2.20;;;;;;;;;;5070178;28;20037;-81
2023/03/03 03:20:49;;;;;;;5.13;2.55;;;;;;;;;;5072550;28;20063;-79
2023/03/03 03:23:15;;;;;;;3.80;1.98;;;;;;;;;;5054279;28;20128;-79
2023/03/03 03:25:45;;;;;;;1.90;1.77;;;;;;;;;;5037151;28;20040;-79
2023/03/03 03:28:15;;;;;;;4.82;2.10;;;;;;;;;;5072124;28;20666;-78
2023/03/03 03:30:42;;;;;;;2.15;1.50;;;;;;;;;;5053565;28;20152;-79
2023/03/03 03:33:09;;;;;;;3.05;2.67;;;;;;;;;;5071018;28;20056;-77
2023/03/03 03:35:36;;;;;;;2.63;1.73;;;;;;;;;;5053972;28;20101;-78
2023/03/03 03:38:02;;;;;;;3.42;1.58;;;;;;;;;;5037716;28;20454;-79
2023/03/03 03:40:29;;;;;;;2.58;2.38;;;;;;;;;;5070505;28;20040;-76
2023/03/03 03:42:55;;;;;;;2.58;2.20;;;;;;;;;;5070252;28;20459;-78
2023/03/03 03:45:22;;;;;;;2.60;1.90;;;;;;;;;;5053556;28;20656;-79
2023/03/03 03:47:49;;;;;;;4.72;2.33;;;;;;;;;;5054756;28;20036;-77
2023/03/03 03:50:15;;;;;;;1.67;1.58;;;;;;;;;;5071553;28;20044;-78
2023/03/03 03:52:42;;;;;;;5.88;2.85;;;;;;;;;;5033944;28;20127;-77
2023/03/03 03:55:10;;;;;;;3.47;2.58;;;;;;;;;;5050018;28;20501;-78
2023/03/03 03:57:38;;;;;;;5.53;2.20;;;;;;;;;;5049738;28;20037;-76
2023/03/03 04:00:05;;;;;;;2.97;2.40;;;;;;;;;;5061118;28;20048;-77
2023/03/03 04:02:39;;;;;;;2.40;2.20;;;;;;;;;;5071010;28;20040;-79
2023/03/03 04:05:09;;;;;;;1.95;1.85;;;;;;;;;;5052088;28;20055;-78
2023/03/03 04:07:36;;;;;;;4.05;2.50;;;;;;;;;;5056861;28;20033;-78
2023/03/03 04:10:03;;;;;;;2.03;1.90;;;;;;;;;;5057224;28;20119;-78
2023/03/03 04:12:34;;;;;;;4.03;2.35;;;;;;;;;;5051594;28;20051;-75
2023/03/03 04:15:00;;;;;;;;;;;;;;;;;;5051950;28;20050;-77
2023/03/03 04:17:28;;;;;;;3.60;2.90;;;;;;;;;;5057944;28;19919;-74
2023/03/03 04:19:54;;;;;;;6.07;2.47;;;;;;;;;;5044588;28;21633;-77
2023/03/03 04:22:21;;;;;;;2.45;2.25;;;;;;;;;;5046782;28;20037;-74
2023/03/03 04:24:48;;;;;;;6.20;2.28;;;;;;;;;;5050274;28;20044;-74
2023/03/03 04:27:15;;;;;;;3.15;2.13;;;;;;;;;;5047617;28;20078;-74
2023/03/03 04:29:42;;;;;;;2.92;2.65;;;;;;;;;;5062838;28;20044;-75
2023/03/03 04:32:09;;;;;;;5.97;2.58;;;;;;;;;;5041336;28;20049;-74
2023/03/03 04:34:36;;;;;;;2.70;2.50;;;;;;;;;;5026735;28;20044;-74
2023/03/03 04:37:03;;;;;;;4.63;2.55;;;;;;;;;;5026580;28;20037;-75
2023/03/03 04:39:29;;;;;;;4.53;2.13;;;;;;;;;;5012538;28;20084;-73
2023/03/03 04:41:56;;;;;;;3.75;2.03;;;;;;;;;;5044017;28;20112;-74
2023/03/03 04:44:23;;;;;;;2.33;2.17;;;;;;;;;;5028353;28;20064;-74
2023/03/03 04:46:49;;;;;;;4.85;2.13;;;;;;;;;;5011413;28;20029;-73
2023/03/03 04:49:16;;;;;;;4.60;2.45;;;;;;;;;;5028145;28;20033;-75
2023/03/03 04:51:42;;;;;;;2.15;1.85;;;;;;;;;;5014636;28;20049;-74
2023/03/03 04:54:09;;;;;;;4.03;2.38;;;;;;;;;;5008436;28;20499;-75
2023/03/03 04:56:35;;;;;;;2.45;2.25;;;;;;;;;;5010015;28;20038;-75
2023/03/03 04:59:01;;;;;;;5.43;2.55;;;;;;;;;;5019126;28;20580;-74
2023/03/03 05:01:27;;;;;;;3.90;2.40;;;;;;;;;;5028049;28;20120;-75
2023/03/03 05:03:54;;;;;;;4.97;2.28;;;;;;;;;;5029736;28;20045;-73
2023/03/03 05:06:21;;;;;;;1.77;1.67;;;;;;;;;;5029310;28;20057;-74
2023/03/03 05:08:47;;;;;;;2.58;1.73;;;;;;;;;;5029583;28;20033;-75
2023/03/03 05:11:13;;;;;;;7.57;2.88;;;;;;;;;;5028733;28;20068;-75
2023/03/03 05:13:39;;;;;;;2.50;2.05;;;;;;;;;;5028899;28;20041;-74
2023/03/03 05:16:06;;;;;;;3.78;2.15;;;;;;;;;;5029645;28;20044;-73
2023/03/03 05:18:32;;;;;;;2.63;2.40;;;;;;;;;;5009121;28;20029;-74
2023/03/03 05:20:58;;;;;;;1.30;1.27;;;;;;;;;;5009407;28;20041;-75
2023/03/03 05:23:24;;;;;;;9.45;2.28;;;;;;;;;;5007911;28;20129;-74
2023/03/03 05:25:50;;;;;;;2.95;2.50;;;;;;;;;;5007605;28;20037;-74
2023/03/03 05:28:17;;;;;;;2.30;2.10;;;;;;;;;;5009317;28;20029;-75
2023/03/03 05:30:43;;;;;;;3.15;2.60;;;;;;;;;;5012193;28;20077;-76
2023/03/03 05:33:11;;;;;;;6.30;1.95;;;;;;;;;;5027760;28;20113;-74
2023/03/03 05:35:37;;;;;;;2.65;2.45;;;;;;;;;;5027259;28;20052;-74
2023/03/03 05:38:03;;;;;;;6.75;3.00;;;;;;;;;;5028556;28;20062;-75
2023/03/03 05:40:32;;;;;;;6.20;2.60;;;;;;;;;;5027458;28;20498;-76
2023/03/03 05:42:58;;;;;;;6.03;3.05;;;;;;;;;;5028210;28;20033;-76
2023/03/03 05:45:24;;;;;;;4.97;2.22;;;;;;;;;;5028572;28;20498;-75
2023/03/03 05:47:50;;;;;;;4.78;2.97;;;;;;;;;;5027085;28;20037;-76
2023/03/03 05:50:16;;;;;;;3.22;2.08;;;;;;;;;;5028691;28;20038;-75
2023/03/03 05:52:43;;;;;;;3.33;2.33;;;;;;;;;;5027350;28;20136;-74
2023/03/03 05:55:09;;;;;;;4.20;2.10;;;;;;;;;;5027447;28;20116;-73
2023/03/03 05:57:35;;;;;;;8.55;3.42;;;;;;;;;;5027170;28;20033;-75
2023/03/03 06:00:02;;;;;;;3.33;2.20;;;;;;;;;;5010635;28;20040;-74
2023/03/03 06:02:38;;;;;;;5.50;1.92;;;;;;;;;;5027267;28;20413;-74
2023/03/03 06:05:04;;;;;;;4.70;2.75;;;;;;;;;;5028496;28;20080;-73
2023/03/03 06:07:30;;;;;;;8.10;2.47;;;;;;;;;;5028289;28;20029;-73
2023/03/03 06:09:56;;;;;;;3.92;2.38;;;;;;;;;;5027158;28;20033;-75
2023/03/03 06:12:23;;;;;;;3.42;2.35;;;;;;;;;;5028672;28;20056;-75
2023/03/03 06:14:50;;;;;;;5.78;2.33;;;;;;;;;;5024181;28;20590;-74
2023/03/03 06:17:16;;;;;;;4.93;2.28;;;;;;;;;;5007635;28;20030;-74
2023/03/03 06:19:42;;;;;;;2.80;2.60;;;;;;;;;;5007167;28;20038;-74
2023/03/03 06:22:11;;;;;;;4.50;1.90;;;;;;;;;;5016718;28;20100;-74
2023/03/03 06:24:37;;;;;;;1.83;1.70;;;;;;;;;;5026915;28;20105;-74
2023/03/03 06:27:03;;;;;;;3.17;2.20;;;;;;;;;;5027004;28;20405;-73
2023/03/03 06:29:29;;;;;;;7.50;2.38;;;;;;;;;;5027927;28;20584;-73
2023/03/03 06:31:56;;;;;;;2.25;1.70;;;;;;;;;;5043958;28;20056;-74
2023/03/03 06:34:22;;;;;;;2.83;2.03;;;;;;;;;;5050100;28;20033;-76
2023/03/03 06:36:48;;;;;;;2.45;2.25;;;;;;;;;;5067646;28;20032;-74
2023/03/03 06:39:14;;;;;;;4.18;2.67;;;;;;;;;;5068237;28;20058;-73
2023/03/03 06:41:43;;;;;;;2.45;2.22;;;;;;;;;;5067363;28;20540;-74
2023/03/03 06:44:11;;;;;;;3.38;1.88;;;;;;;;;;5049806;28;20040;-73
2023/03/03 06:46:37;;;;;;;3.70;2.72;;;;;;;;;;5068019;28;20152;-75
2023/03/03 06:49:04;;;;;;;5.40;2.47;;;;;;;;;;5067949;28;20105;-76
2023/03/03 06:51:31;;;;;;;2.08;1.75;;;;;;;;;;5051147;28;20454;-76
2023/03/03 06:53:57;;;;;;;4.07;2.40;;;;;;;;;;5054086;28;20531;-77
2023/03/03 06:56:24;;;;;;;3.78;2.55;;;;;;;;;;5072067;28;20127;-78
2023/03/03 06:58:52;;;;;;;1.98;1.77;;;;;;;;;;5071470;28;20055;-77
2023/03/03 07:01:18;;;;;;;2.65;2.17;;;;;;;;;;5071572;28;20037;-75
2023/03/03 07:03:44;;;;;;;3.63;2.45;;;;;;;;;;5071149;28;20478;-73
2023/03/03 07:06:15;;;;;;;2.38;2.17;;;;;;;;;;5071271;28;20033;-74
2023/03/03 07:08:41;;;;;;;2.53;2.08;;;;;;;;;;5053362;28;20028;-74
2023/03/03 07:11:13;;;;;;;6.47;2.72;;;;;;;;;;5071381;28;20032;-74
2023/03/03 07:13:43;;;;;;;9.60;2.17;;;;;;;;;;5053677;28;20032;-75
2023/03/03 07:16:10;;;;;;;3.17;2.30;;;;;;;;;;5071058;28;20028;-75
2023/03/03 07:18:39;;;;;;;2.50;2.22;;;;;;;;;;5053071;28;20085;-75
2023/03/03 07:21:07;;;;;;;2.42;2.20;;;;;;;;;;5070807;28;20519;-76
2023/03/03 07:23:43;;;;;;;2.90;2.33;;;;;;;;;;5036846;28;20576;-76
2023/03/03 07:26:13;;;;;;;3.80;2.28;;;;;;;;;;5069991;28;20039;-75
2023/03/03 07:28:40;;;;;;;6.32;2.45;;;;;;;;;;5070368;28;20032;-74
2023/03/03 07:31:15;;;;;;;3.45;2.00;;;;;;;;;;5070112;28;20068;-77
2023/03/03 07:33:42;;;;;;;3.47;2.67;;;;;;;;;;5068735;28;20116;-74
2023/03/03 07:36:18;;;;;;;8.35;2.83;;;;;;;;;;5053329;28;20778;-75
2023/03/03 07:38:48;;;;;;;2.97;1.85;;;;;;;;;;5046861;28;20075;-76
2023/03/03 07:41:15;;;;;;;2.70;2.08;;;;;;;;;;5070395;28;20036;-74
2023/03/03 07:43:53;;;;;;;2.55;2.20;;;;;;;;;;5069937;28;20523;-77
2023/03/03 07:46:26;;;;;;;5.57;3.20;;;;;;;;;;5070624;28;20043;-75
2023/03/03 07:48:53;;;;;;;2.30;2.10;;;;;;;;;;5070051;28;20055;-74
2023/03/03 07:51:24;;;;;;;2.45;2.25;;;;;;;;;;5070284;28;20067;-73
2023/03/03 07:53:51;;;;;;;4.07;3.38;;;;;;;;;;5068250;28;20043;-76
2023/03/03 07:56:27;;;;;;;8.20;3.17;;;;;;;;;;5070548;28;20036;-76
2023/03/03 07:59:00;;;;;;;5.78;2.97;;;;;;;;;;5036241;28;20392;-73
2023/03/03 08:01:38;;;;;;;3.42;2.60;;;;;;;;;;5039611;28;20452;-73
2023/03/03 08:04:23;;;;;;;4.40;2.00;;;;;;;;;;5069364;28;20527;-74
2023/03/03 08:06:50;;;;;;;7.63;2.40;;;;;;;;;;5034027;28;20032;-75
2023/03/03 08:09:19;;;;;;;2.53;2.33;;;;;;;;;;5053619;28;20040;-75
2023/03/03 08:11:52;;;;;;;2.78;2.58;;;;;;;;;;5070633;28;20032;-73
2023/03/03 08:14:41;;;;;;;2.90;1.60;;;;;;;;;;5053257;28;20048;-74
2023/03/03 08:17:14;;;;;;;3.53;2.28;;;;;;;;;;5066838;28;20082;-75
2023/03/03 08:19:40;;;;;;;3.33;2.05;;;;;;;;;;5035808;28;20131;-76
2023/03/03 08:22:08;;;;;;;1.80;1.70;;;;;;;;;;5047399;28;20024;-74
2023/03/03 08:24:34;;;;;;;5.88;2.63;;;;;;;;;;5053409;28;20044;-76
2023/03/03 08:27:00;;;;;;;3.60;2.65;;;;;;;;;;5071052;28;20053;-75
2023/03/03 08:29:27;;;;;;;2.92;2.22;;;;;;;;;;5075828;28;20044;-74
2023/03/03 08:31:53;;;;;;;2.70;2.22;;;;;;;;;;5075359;28;20087;-74
2023/03/03 08:34:19;;;;;;;3.63;2.42;;;;;;;;;;5073872;28;20037;-74
2023/03/03 08:36:46;;;;;;;3.08;2.75;;;;;;;;;;5077331;28;20258;-75
2023/03/03 08:39:12;;;;;;;7.15;2.78;;;;;;;;;;5056879;28;20442;-73
2023/03/03 08:41:39;;;;;;;3.70;2.35;;;;;;;;;;5071189;28;20123;-73
2023/03/03 08:44:05;;;;;;;4.03;2.20;;;;;;;;;;5069518;28;20049;-73
2023/03/03 08:46:31;;;;;;;3.90;2.53;;;;;;;;;;5051445;28;20024;-73
2023/03/03 08:48:58;;;;;;;2.53;2.42;;;;;;;;;;5050795;28;20052;-72
2023/03/03 08:51:25;;;;;;;2.50;2.30;;;;;;;;;;5068972;28;20037;-73
2023/03/03 08:53:51;;;;;;;3.03;2.33;;;;;;;;;;5068586;28;20032;-73
2023/03/03 08:56:16;;;;;;;8.73;2.72;;;;;;;;;;5051225;28;20161;-73
2023/03/03 08:58:46;;;;;;;2.95;2.75;;;;;;;;;;5069405;28;20043;-72
2023/03/03 09:01:14;;;;;;;5.50;2.80;;;;;;;;;;5050866;28;20052;-74
2023/03/03 09:03:40;;;;;;;4.10;2.80;;;;;;;;;;5068716;28;20032;-73
2023/03/03 09:06:06;;;;;;;2.83;2.58;;;;;;;;;;5051231;28;20530;-76
2023/03/03 09:08:32;;;;;;;5.07;2.78;;;;;;;;;;5068736;28;20097;-74
2023/03/03 09:10:59;;;;;;;4.25;2.88;;;;;;;;;;5068765;28;20467;-72
2023/03/03 09:13:26;;;;;;;4.22;2.42;;;;;;;;;;5049512;28;20461;-72
2023/03/03 09:15:52;;;;;;;4.88;2.67;;;;;;;;;;5049250;28;20440;-73
2023/03/03 09:18:22;;;;;;;6.15;2.83;;;;;;;;;;5050680;28;20451;-73
2023/03/03 09:20:48;;;;;;;6.15;2.83;;;;;;;;;;5033774;28;20116;-73
2023/03/03 09:23:24;;;;;;;3.30;1.83;;;;;;;;;;5068606;28;20530;-74
2023/03/03 09:25:50;;;;;;;3.33;2.30;;;;;;;;;;5050211;28;20044;-73
2023/03/03 09:28:23;;;;;;;2.50;2.30;;;;;;;;;;5050532;28;20050;-75
2023/03/03 09:30:50;;;;;;;3.92;2.67;;;;;;;;;;5029809;28;20048;-74
2023/03/03 09:33:24;;;;;;;2.50;2.25;;;;;;;;;;5050507;28;20024;-73
2023/03/03 09:35:50;;;;;;;3.45;2.33;;;;;;;;;;5067835;28;20531;-73
2023/03/03 09:38:29;;;;;;;3.65;2.47;;;;;;;;;;5050436;28;20090;-74
2023/03/03 09:41:11;;;;;;;2.05;1.95;;;;;;;;;;5067703;28;20040;-72
2023/03/03 09:43:40;;;;;;;9.05;3.22;;;;;;;;;;5049063;28;20097;-72
2023/03/03 09:46:09;;;;;;;2.15;1.95;;;;;;;;;;5049784;28;20043;-72
2023/03/03 09:48:51;;;;;;;2.70;2.30;;;;;;;;;;5067934;28;20032;-73
2023/03/03 09:51:21;;;;;;;2.35;2.15;;;;;;;;;;5049998;28;20041;-73
2023/03/03 09:54:06;;;;;;;4.57;3.30;;;;;;;;;;5065641;28;20081;-73
2023/03/03 09:56:34;;;;;;;2.70;2.50;;;;;;;;;;5065254;28;20527;-73
2023/03/03 09:59:19;;;;;;;4.72;2.92;;;;;;;;;;5068143;28;20063;-74
2023/03/03 10:01:50;;;;;;;3.33;2.42;;;;;;;;;;5050328;28;20036;-75
2023/03/03 10:04:23;;;;;;;3.33;2.58;;;;;;;;;;5050288;28;20143;-75
2023/03/03 10:07:08;;;;;;;2.33;2.13;;;;;;;;;;5068039;28;20093;-74
2023/03/03 10:09:52;;;;;;;5.63;2.45;;;;;;;;;;5068167;28;20036;-75
2023/03/03 10:12:18;;;;;;;2.78;2.50;;;;;;;;;;5067341;28;20126;-77
2023/03/03 10:15:03;;;;;;;3.55;3.05;;;;;;;;;;5067307;28;20058;-75
2023/03/03 10:17:38;;;;;;;2.13;2.03;;;;;;;;;;5066964;28;20090;-74
2023/03/03 10:20:16;;;;;;;2.78;2.58;;;;;;;;;;5049185;28;20094;-73
2023/03/03 10:22:55;;;;;;;4.45;2.38;;;;;;;;;;5049965;28;20036;-76
2023/03/03 10:25:27;;;;;;;2.70;2.28;;;;;;;;;;5055219;28;20044;-74
2023/03/03 10:28:12;;;;;;;1.85;1.75;;;;;;;;;;5069836;28;20036;-74
2023/03/03 10:30:56;;;;;;;3.28;1.92;;;;;;;;;;5071439;28;20406;-74
2023/03/03 10:33:36;;;;;;;1.70;1.63;;;;;;;;;;5070731;28;20464;-74
2023/03/03 10:36:16;;;;;;;1.70;1.60;;;;;;;;;;5070996;28;20031;-75
2023/03/03 10:39:00;;;;;;;2.33;1.90;;;;;;;;;;5052740;28;20477;-76
2023/03/03 10:41:32;;;;;;;3.45;2.22;;;;;;;;;;5053431;28;20029;-75
2023/03/03 10:44:11;;;;;;;1.85;1.75;;;;;;;;;;5070713;28;20094;-74
2023/03/03 10:46:49;;;;;;;1.40;1.30;;;;;;;;;;5071033;28;20036;-74
2023/03/03 10:49:21;;;;;;;2.30;2.10;;;;;;;;;;5071322;28;20044;-74
2023/03/03 10:51:47;;;;;;;;;;;;;;;;;;5033663;28;20108;-74
2023/03/03 10:54:29;;;;;;;1.83;1.65;;;;;;;;;;5051832;28;20011;-76
2023/03/03 10:57:01;;;;;;;1.63;1.52;;;;;;;;;;5053546;28;20041;-76
2023/03/03 10:59:33;;;;;;;2.78;2.00;;;;;;;;;;5053382;28;20032;-77
2023/03/03 11:02:00;;;;;;;1.95;1.85;;;;;;;;;;5070928;28;20032;-74
2023/03/03 11:04:26;;;;;;;2.50;2.30;;;;;;;;;;5069435;28;20044;-75
2023/03/03 11:06:55;;;;;;;3.10;2.40;;;;;;;;;;5052311;28;20416;-77
2023/03/03 11:09:30;;;;;;;1.80;1.70;;;;;;;;;;5070925;28;20035;-75
2023/03/03 11:12:12;;;;;;;6.10;2.15;;;;;;;;;;5035794;28;20071;-77
2023/03/03 11:14:57;;;;;;;2.00;1.90;;;;;;;;;;5070682;28;20036;-72
2023/03/03 11:17:26;;;;;;;2.20;2.00;;;;;;;;;;5052951;28;20040;-74
2023/03/03 11:20:11;;;;;;;1.75;1.65;;;;;;;;;;5052633;28;20028;-75
2023/03/03 11:22:40;;;;;;;1.90;1.80;;;;;;;;;;5070715;28;20032;-75
2023/03/03 11:25:10;;;;;;;1.73;1.50;;;;;;;;;;5053119;28;20044;-75
2023/03/03 11:27:46;;;;;;;3.55;2.15;;;;;;;;;;5070302;28;20024;-75
2023/03/03 11:30:24;;;;;;;1.80;1.70;;;;;;;;;;5069924;28;20054;-73
2023/03/03 11:33:08;;;;;;;3.65;2.05;;;;;;;;;;5070343;28;20040;-75
2023/03/03 11:35:49;;;;;;;2.17;1.98;;;;;;;;;;5069876;28;20500;-74
2023/03/03 11:38:24;;;;;;;1.50;1.50;;;;;;;;;;5051047;28;20041;-76
2023/03/03 11:40:52;;;;;;;1.85;1.75;;;;;;;;;;5052734;28;20500;-75
2023/03/03 11:43:21;;;;;;;3.33;1.80;;;;;;;;;;5039841;28;20033;-75
2023/03/03 11:45:48;;;;;;;1.52;1.42;;;;;;;;;;5070372;28;20048;-75
2023/03/03 11:48:23;;;;;;;3.42;1.90;;;;;;;;;;5071616;28;20110;-78
2023/03/03 11:50:52;;;;;;;3.20;3.00;;;;;;;;;;5053059;28;20037;-75
2023/03/03 11:53:36;;;;;;;1.60;1.50;;;;;;;;;;5072134;28;20067;-75
2023/03/03 11:56:09;;;;;;;0.98;0.98;;;;;;;;;;5037215;28;20036;-75
2023/03/03 11:58:41;;;;;;;1.35;1.35;;;;;;;;;;5033417;28;20489;-76
2023/03/03 12:01:10;;;;;;;2.53;1.70;;;;;;;;;;5065693;28;20028;-76
2023/03/03 12:03:38;;;;;;;4.60;2.00;;;;;;;;;;5052371;28;20484;-76
2023/03/03 12:06:24;;;;;;;3.33;1.65;;;;;;;;;;5069736;28;20032;-74
2023/03/03 12:08:57;;;;;;;1.58;1.48;;;;;;;;;;5069733;28;20119;-76
2023/03/03 12:11:23;;;;;;;1.50;1.40;;;;;;;;;;5070477;28;20051;-77
2023/03/03 12:13:56;;;;;;;1.48;1.48;;;;;;;;;;5069498;28;20032;-75
2023/03/03 12:16:25;;;;;;;2.63;1.98;;;;;;;;;;5067353;28;20040;-78
2023/03/03 12:18:54;;;;;;;1.63;1.63;;;;;;;;;;5067850;28;20397;-77
2023/03/03 12:21:43;;;;;;;4.35;2.15;;;;;;;;;;5031892;28;20496;-77
2023/03/03 12:24:12;;;;;;;2.35;1.98;;;;;;;;;;5045922;28;20098;-76
2023/03/03 12:26:48;;;;;;;1.77;1.67;;;;;;;;;;5070087;28;20036;-76
2023/03/03 12:29:30;;;;;;;1.33;1.33;;;;;;;;;;5057017;28;20028;-75
2023/03/03 12:32:03;;;;;;;1.85;1.75;;;;;;;;;;5022205;28;20046;-76
2023/03/03 12:34:32;;;;;;;1.35;1.25;;;;;;;;;;5029702;28;20132;-76
2023/03/03 12:36:58;;;;;;;3.22;1.83;;;;;;;;;;5029802;28;20033;-76
2023/03/03 12:39:28;;;;;;;2.28;1.63;;;;;;;;;;5029859;28;20076;-77
2023/03/03 12:42:06;;;;;;;1.50;1.45;;;;;;;;;;5029124;28;20180;-75
2023/03/03 12:45:07;;;;;;;1.73;1.58;;;;;;;;;;5028682;28;20060;-76
2023/03/03 12:47:33;;;;;;;5.03;1.98;;;;;;;;;;4979445;28;20793;-74
2023/03/03 12:50:09;;;;;;;4.10;2.05;;;;;;;;;;5006826;28;20136;-74
2023/03/03 12:52:58;;;;;;;3.67;1.80;;;;;;;;;;5027140;28;20520;-75
2023/03/03 12:55:30;;;;;;;2.17;1.98;;;;;;;;;;5023377;28;20032;-76
2023/03/03 12:57:59;;;;;;;1.58;1.48;;;;;;;;;;5020496;28;20041;-75
2023/03/03 13:00:31;;;;;;;2.45;1.70;;;;;;;;;;5042329;28;20034;-76
2023/03/03 13:02:57;;;;;;;1.60;1.50;;;;;;;;;;5010574;28;20062;-74
2023/03/03 13:05:29;;;;;;;1.13;1.13;;;;;;;;;;5020206;28;20049;-74
2023/03/03 13:07:58;;;;;;;1.75;1.58;;;;;;;;;;5027256;28;20033;-75
2023/03/03 13:10:24;;;;;;;4.93;1.92;;;;;;;;;;5027893;28;20044;-73
2023/03/03 13:12:58;;;;;;;2.30;1.88;;;;;;;;;;5027031;28;20033;-76
2023/03/03 13:15:25;;;;;;;1.92;1.67;;;;;;;;;;5026084;28;20033;-77
2023/03/03 13:17:51;;;;;;;2.00;1.30;;;;;;;;;;5023989;28;20030;-74
2023/03/03 13:20:23;;;;;;;1.70;1.60;;;;;;;;;;5026137;28;20044;-74
2023/03/03 13:22:51;;;;;;;3.17;1.83;;;;;;;;;;5026614;28;20035;-73
2023/03/03 13:25:29;;;;;;;2.25;2.05;;;;;;;;;;5027567;28;20135;-73
2023/03/03 13:28:06;;;;;;;1.60;1.50;;;;;;;;;;5027709;28;20037;-75
2023/03/03 13:30:36;;;;;;;3.90;1.83;;;;;;;;;;5009656;28;20123;-75
2023/03/03 13:33:20;;;;;;;5.05;1.85;;;;;;;;;;5042699;28;20039;-75
2023/03/03 13:35:57;;;;;;;2.05;1.60;;;;;;;;;;5031959;28;20389;-76
2023/03/03 13:38:24;;;;;;;2.55;2.08;;;;;;;;;;5049439;28;20043;-77
2023/03/03 13:40:53;;;;;;;1.45;1.13;;;;;;;;;;5035025;28;20025;-75
2023/03/03 13:43:28;;;;;;;7.20;2.70;;;;;;;;;;5049243;28;20042;-73
2023/03/03 13:46:13;;;;;;;2.63;2.42;;;;;;;;;;5030532;28;20044;-75
2023/03/03 13:49:03;;;;;;;3.08;1.90;;;;;;;;;;5047525;28;20037;-81
2023/03/03 13:51:29;;;;;;;3.72;2.00;;;;;;;;;;5057438;28;20080;-78
2023/03/03 13:53:58;;;;;;;3.05;1.75;;;;;;;;;;5049601;28;20052;-82
2023/03/03 13:56:42;;;;;;;5.75;2.30;;;;;;;;;;5051491;28;20028;-80
2023/03/03 13:59:15;;;;;;;7.55;2.17;;;;;;;;;;5070110;28;20039;-81
2023/03/03 14:01:41;;;;;;;1.63;1.52;;;;;;;;;;5063439;28;20064;-81
2023/03/03 14:04:10;;;;;;;6.28;2.13;;;;;;;;;;5059579;28;20103;-82
2023/03/03 14:06:41;;;;;;;5.88;2.25;;;;;;;;;;5064536;28;20040;-80
2023/03/03 14:09:23;;;;;;;3.92;1.83;;;;;;;;;;5066953;28;20037;-81
2023/03/03 14:11:48;;;;;;;;;;;;;;;;;;5057169;28;20059;-78
2023/03/03 14:14:14;;;;;;;2.95;1.98;;;;;;;;;;5060926;28;19917;-80
2023/03/03 14:16:46;;;;;;;2.95;2.05;;;;;;;;;;5069447;28;20058;-81
2023/03/03 14:19:17;;;;;;;1.65;1.55;;;;;;;;;;5072757;28;20035;-83
2023/03/03 14:21:48;;;;;;;1.42;1.30;;;;;;;;;;5080816;28;20047;-83
2023/03/03 14:24:14;;;;;;;2.80;1.88;;;;;;;;;;5054712;28;20090;-80
2023/03/03 14:26:50;;;;;;;3.35;2.47;;;;;;;;;;5072697;28;20028;-83
2023/03/03 14:29:21;;;;;;;8.25;3.00;;;;;;;;;;5076862;28;20044;-82
2023/03/03 14:31:47;;;;;;;3.10;2.28;;;;;;;;;;5040370;28;20201;-84
2023/03/03 14:34:24;;;;;;;5.90;2.88;;;;;;;;;;5069982;28;20036;-81
2023/03/03 14:36:52;;;;;;;2.97;1.83;;;;;;;;;;5070233;28;20452;-82
2023/03/03 14:39:25;;;;;;;4.25;2.80;;;;;;;;;;5056792;28;20028;-81
2023/03/03 14:41:51;;;;;;;4.35;2.85;;;;;;;;;;5065641;28;20021;-81
2023/03/03 14:44:24;;;;;;;3.30;2.35;;;;;;;;;;5074054;28;20583;-82
2023/03/03 14:46:59;;;;;;;2.17;2.08;;;;;;;;;;5074591;28;20028;-83
2023/03/03 14:49:30;;;;;;;3.03;2.58;;;;;;;;;;5063135;28;20102;-82
2023/03/03 14:52:04;;;;;;;4.15;2.28;;;;;;;;;;5071389;28;20029;-84
2023/03/03 14:54:33;;;;;;;1.83;1.73;;;;;;;;;;5050334;28;20036;-81
2023/03/03 14:57:00;;;;;;;3.85;2.30;;;;;;;;;;5042128;28;20112;-79
2023/03/03 14:59:27;;;;;;;1.42;1.33;;;;;;;;;;5049054;28;20043;-81